createdAt,value
2022-12-09T00:00:57.881Z,1.67
2022-12-09T00:03:25.258Z,1.43
2022-12-09T00:05:52.648Z,1.73
2022-12-09T00:08:19.901Z,1.60
2022-12-09T00:10:47.022Z,1.50
2022-12-09T00:13:14.129Z,1.57
2022-12-09T00:15:42.583Z,1.43
2022-12-09T00:18:10.236Z,1.70
2022-12-09T00:20:37.626Z,1.60
2022-12-09T00:23:06.105Z,1.63
2022-12-09T00:25:33.318Z,1.77
2022-12-09T00:28:00.623Z,1.60
2022-12-09T00:30:28.122Z,1.37
2022-12-09T00:32:55.271Z,1.60
2022-12-09T00:35:22.920Z,1.70
2022-12-09T00:37:50.449Z,1.70
2022-12-09T00:40:17.732Z,1.60
2022-12-09T00:42:44.902Z,1.40
2022-12-09T00:45:12.154Z,1.70
2022-12-09T00:47:39.435Z,1.60
2022-12-09T00:50:07.538Z,1.63
2022-12-09T00:52:35.021Z,1.50
2022-12-09T00:55:02.318Z,1.57
2022-12-09T00:57:29.616Z,1.43
2022-12-09T00:59:57.127Z,1.50
2022-12-09T01:02:24.606Z,1.80
2022-12-09T01:04:52.414Z,1.40
2022-12-09T01:07:19.839Z,1.40
2022-12-09T01:09:47.153Z,1.60
2022-12-09T01:12:14.250Z,1.60
2022-12-09T01:14:41.354Z,1.73
2022-12-09T01:17:08.664Z,1.60
2022-12-09T01:19:36.021Z,1.83
2022-12-09T01:22:03.472Z,1.60
2022-12-09T01:24:30.617Z,1.67
2022-12-09T01:26:57.877Z,1.50
2022-12-09T01:29:25.104Z,1.47
2022-12-09T01:31:52.319Z,2.20
2022-12-09T01:34:19.451Z,1.57
2022-12-09T01:36:48.427Z,1.70
2022-12-09T01:39:16.715Z,1.83
2022-12-09T01:41:44.158Z,1.87
2022-12-09T01:44:13.048Z,1.80
2022-12-09T01:46:40.398Z,1.50
2022-12-09T01:49:08.761Z,1.67
2022-12-09T01:51:36.195Z,1.70
2022-12-09T01:54:03.704Z,1.50
2022-12-09T01:56:32.929Z,1.60
2022-12-09T01:59:03.025Z,1.60
2022-12-09T02:01:30.178Z,1.50
2022-12-09T02:03:57.680Z,1.40
2022-12-09T02:06:25.193Z,1.53
2022-12-09T02:08:52.556Z,1.80
2022-12-09T02:11:30.669Z,1.60
2022-12-09T02:14:11.343Z,1.50
2022-12-09T02:16:42.532Z,1.60
2022-12-09T02:19:28.887Z,1.30
2022-12-09T02:22:00.258Z,1.30
2022-12-09T02:24:41.295Z,1.33
2022-12-09T02:27:08.441Z,1.50
2022-12-09T02:29:53.681Z,1.20
2022-12-09T02:32:37.914Z,1.50
2022-12-09T02:35:16.844Z,1.30
2022-12-09T02:37:52.153Z,1.30
2022-12-09T02:40:22.524Z,1.30
2022-12-09T02:42:50.237Z,1.37
2022-12-09T02:45:19.077Z,1.50
2022-12-09T02:47:49.063Z,1.40
2022-12-09T02:50:18.458Z,1.40
2022-12-09T02:52:45.772Z,1.20
2022-12-09T02:55:14.684Z,1.30
2022-12-09T02:57:42.405Z,1.30
2022-12-09T03:00:10.413Z,1.50
2022-12-09T03:02:43.943Z,1.40
2022-12-09T03:05:20.358Z,1.27
2022-12-09T03:07:57.571Z,1.30
2022-12-09T03:10:28.426Z,1.73
2022-12-09T03:13:01.052Z,1.30
2022-12-09T03:15:30.717Z,1.37
2022-12-09T03:17:59.111Z,1.37
2022-12-09T03:20:29.334Z,1.47
2022-12-09T03:23:00.099Z,1.40
2022-12-09T03:25:31.495Z,1.47
2022-12-09T03:28:03.514Z,1.43
2022-12-09T03:30:32.316Z,1.40
2022-12-09T03:32:59.596Z,1.30
2022-12-09T03:35:42.380Z,1.30
2022-12-09T03:38:11.434Z,1.47
2022-12-09T03:40:39.404Z,1.40
2022-12-09T03:43:11.782Z,1.60
2022-12-09T03:45:39.372Z,1.47
2022-12-09T03:48:06.937Z,1.40
2022-12-09T03:50:42.531Z,1.57
2022-12-09T03:53:15.460Z,1.60
2022-12-09T03:55:49.790Z,1.37
2022-12-09T03:58:17.973Z,1.27
2022-12-09T04:00:45.595Z,1.50
2022-12-09T04:03:14.243Z,1.60
2022-12-09T04:05:43.275Z,1.27
2022-12-09T04:08:10.907Z,1.50
2022-12-09T04:10:38.114Z,1.20
2022-12-09T04:13:05.297Z,1.30
2022-12-09T04:15:32.489Z,1.00
2022-12-09T04:18:00.444Z,1.30
2022-12-09T04:20:28.026Z,1.40
2022-12-09T04:22:56.633Z,1.30
2022-12-09T04:25:23.895Z,1.23
2022-12-09T04:27:51.080Z,1.50
2022-12-09T04:30:18.420Z,1.77
2022-12-09T04:32:46.016Z,1.40
2022-12-09T04:35:13.265Z,1.57
2022-12-09T04:37:40.409Z,1.30
2022-12-09T04:40:08.982Z,1.30
2022-12-09T04:42:36.673Z,1.57
2022-12-09T04:45:04.573Z,1.60
2022-12-09T04:47:33.513Z,1.50
2022-12-09T04:50:00.828Z,1.50
2022-12-09T04:52:28.274Z,1.63
2022-12-09T04:54:55.765Z,1.40
2022-12-09T04:57:22.963Z,1.30
2022-12-09T04:59:50.038Z,1.53
2022-12-09T05:02:17.163Z,1.50
2022-12-09T05:04:46.816Z,1.43
2022-12-09T05:07:14.714Z,1.50
2022-12-09T05:09:42.473Z,1.50
2022-12-09T05:12:09.893Z,1.40
2022-12-09T05:14:37.371Z,1.70
2022-12-09T05:17:04.720Z,1.60
2022-12-09T05:19:32.297Z,1.50
2022-12-09T05:21:59.865Z,1.40
2022-12-09T05:24:27.243Z,1.40
2022-12-09T05:26:54.820Z,1.50
2022-12-09T05:29:23.508Z,1.23
2022-12-09T05:31:51.776Z,1.60
2022-12-09T05:34:19.787Z,1.60
2022-12-09T05:36:47.509Z,1.40
2022-12-09T05:39:14.744Z,1.70
2022-12-09T05:41:43.432Z,1.33
2022-12-09T05:44:14.037Z,1.50
2022-12-09T05:46:41.259Z,1.27
2022-12-09T05:49:08.805Z,1.70
2022-12-09T05:51:36.233Z,1.53
2022-12-09T05:54:04.595Z,1.37
2022-12-09T05:56:32.402Z,1.60
2022-12-09T05:59:00.263Z,1.20
2022-12-09T06:01:27.858Z,1.53
2022-12-09T06:03:55.796Z,1.37
2022-12-09T06:06:26.645Z,1.30
2022-12-09T06:08:58.780Z,1.27
2022-12-09T06:11:27.115Z,1.10
2022-12-09T06:13:54.905Z,1.30
2022-12-09T06:16:23.420Z,1.23
2022-12-09T06:18:51.258Z,1.43
2022-12-09T06:21:19.505Z,1.50
2022-12-09T06:23:47.616Z,1.43
2022-12-09T06:26:26.861Z,1.40
2022-12-09T06:28:54.826Z,1.30
2022-12-09T06:31:22.436Z,1.30
2022-12-09T06:33:55.921Z,1.30
2022-12-09T06:36:24.934Z,1.30
2022-12-09T06:38:52.595Z,1.40
2022-12-09T06:41:19.948Z,1.40
2022-12-09T06:43:47.529Z,1.33
2022-12-09T06:46:19.672Z,1.33
2022-12-09T06:48:47.564Z,1.50
2022-12-09T06:51:15.802Z,1.50
2022-12-09T06:53:43.065Z,1.10
2022-12-09T06:56:12.717Z,1.27
2022-12-09T06:58:41.506Z,1.17
2022-12-09T07:01:14.237Z,1.23
2022-12-09T07:03:42.898Z,1.30
2022-12-09T07:06:29.175Z,1.30
2022-12-09T07:08:58.189Z,1.30
2022-12-09T07:11:25.707Z,1.10
2022-12-09T07:13:53.030Z,1.10
2022-12-09T07:16:21.066Z,1.30
2022-12-09T07:18:48.695Z,1.20
2022-12-09T07:21:20.228Z,1.60
2022-12-09T07:23:47.978Z,1.30
2022-12-09T07:26:15.653Z,1.30
2022-12-09T07:28:43.581Z,1.10
2022-12-09T07:31:18.031Z,1.30
2022-12-09T07:33:46.047Z,1.30
2022-12-09T07:36:17.594Z,1.17
2022-12-09T07:38:48.317Z,1.33
2022-12-09T07:41:18.579Z,1.20
2022-12-09T07:43:46.299Z,1.30
2022-12-09T07:46:14.378Z,1.50
2022-12-09T07:48:41.715Z,1.40
2022-12-09T07:51:09.143Z,1.30
2022-12-09T07:53:37.274Z,1.40
2022-12-09T07:56:05.479Z,1.30
2022-12-09T07:58:33.071Z,1.50
2022-12-09T08:01:11.558Z,1.60
2022-12-09T08:03:40.325Z,1.27
2022-12-09T08:06:07.773Z,1.47
2022-12-09T08:08:35.829Z,1.10
2022-12-09T08:11:10.301Z,1.30
2022-12-09T08:13:37.903Z,1.30
2022-12-09T08:16:06.165Z,1.40
2022-12-09T08:18:34.194Z,1.37
2022-12-09T08:21:05.275Z,1.13
2022-12-09T08:23:32.895Z,1.40
2022-12-09T08:26:01.083Z,1.23
2022-12-09T08:28:29.896Z,1.37
2022-12-09T08:30:57.532Z,1.40
2022-12-09T08:33:25.422Z,1.33
2022-12-09T08:35:52.966Z,1.33
2022-12-09T08:38:20.403Z,1.20
2022-12-09T08:40:47.659Z,1.27
2022-12-09T08:43:15.272Z,1.40
2022-12-09T08:45:42.696Z,1.67
2022-12-09T08:48:10.356Z,1.53
2022-12-09T08:50:38.153Z,1.50
2022-12-09T08:53:05.339Z,1.57
2022-12-09T08:55:34.851Z,1.40
2022-12-09T08:58:02.241Z,1.37
2022-12-09T09:00:29.754Z,1.20
2022-12-09T09:02:57.760Z,1.40
2022-12-09T09:05:25.914Z,1.30
2022-12-09T09:07:53.341Z,1.13
2022-12-09T09:10:20.867Z,1.27
2022-12-09T09:12:48.562Z,1.27
2022-12-09T09:15:16.156Z,1.40
2022-12-09T09:17:49.848Z,1.50
2022-12-09T09:20:19.245Z,1.40
2022-12-09T09:22:47.002Z,1.10
2022-12-09T09:25:14.764Z,1.40
2022-12-09T09:27:42.220Z,1.20
2022-12-09T09:30:10.497Z,1.30
2022-12-09T09:32:38.058Z,1.40
2022-12-09T09:35:05.666Z,1.40
2022-12-09T09:37:33.691Z,1.30
2022-12-09T09:40:01.157Z,1.40
2022-12-09T09:42:35.111Z,1.30
2022-12-09T09:45:04.739Z,1.30
2022-12-09T09:47:37.849Z,1.43
2022-12-09T09:50:25.184Z,1.70
2022-12-09T09:52:53.912Z,1.47
2022-12-09T09:55:29.842Z,1.60
2022-12-09T09:58:06.624Z,1.53
2022-12-09T10:00:57.506Z,1.73
2022-12-09T10:03:44.567Z,1.60
2022-12-09T10:06:21.208Z,1.50
2022-12-09T10:08:57.248Z,1.30
2022-12-09T10:11:27.563Z,1.63
2022-12-09T10:13:59.574Z,1.47
2022-12-09T10:16:27.146Z,1.40
2022-12-09T10:18:54.513Z,1.40
2022-12-09T10:21:23.156Z,1.40
2022-12-09T10:23:51.072Z,1.67
2022-12-09T10:26:22.820Z,1.50
2022-12-09T10:28:54.180Z,1.70
2022-12-09T10:31:21.843Z,1.43
2022-12-09T10:33:49.704Z,1.50
2022-12-09T10:36:22.764Z,1.50
2022-12-09T10:38:50.899Z,2.10
2022-12-09T10:41:55.925Z,2.27
2022-12-09T10:44:24.682Z,2.13
2022-12-09T10:46:59.700Z,2.10
2022-12-09T10:49:27.204Z,2.10
2022-12-09T10:51:55.456Z,2.07
2022-12-09T10:54:25.761Z,2.13
2022-12-09T10:57:23.385Z,2.40
2022-12-09T11:00:17.366Z,2.00
2022-12-09T11:02:50.664Z,2.20
2022-12-09T11:05:22.273Z,1.67
2022-12-09T11:07:51.180Z,1.80
2022-12-09T11:10:20.786Z,1.93
2022-12-09T11:12:51.995Z,2.13
2022-12-09T11:15:26.541Z,2.07
2022-12-09T11:18:05.215Z,2.00
2022-12-09T11:20:34.521Z,1.80
2022-12-09T11:23:01.882Z,1.80
2022-12-09T11:25:32.520Z,1.60
2022-12-09T11:27:59.831Z,1.60
2022-12-09T11:30:27.985Z,2.00
2022-12-09T11:33:08.125Z,1.60
2022-12-09T11:35:45.181Z,1.60
2022-12-09T11:38:31.701Z,1.90
2022-12-09T11:41:15.110Z,2.43
2022-12-09T11:43:44.951Z,2.00
2022-12-09T11:46:14.825Z,2.20
2022-12-09T11:48:44.114Z,1.90
2022-12-09T11:51:21.633Z,1.90
2022-12-09T11:53:48.872Z,1.90
2022-12-09T11:56:22.245Z,1.80
2022-12-09T11:59:01.483Z,1.87
2022-12-09T12:01:33.265Z,1.83
2022-12-09T12:04:01.853Z,2.10
2022-12-09T12:06:47.758Z,2.10
2022-12-09T12:09:19.832Z,2.23
2022-12-09T12:12:13.210Z,2.23
2022-12-09T12:14:42.340Z,2.33
2022-12-09T12:17:32.542Z,2.17
2022-12-09T12:19:59.931Z,1.80
2022-12-09T12:22:39.332Z,2.10
2022-12-09T12:25:18.386Z,1.83
2022-12-09T12:27:54.958Z,1.80
2022-12-09T12:30:23.820Z,1.90
2022-12-09T12:36:01.637Z,1.90
2022-12-09T12:38:34.493Z,2.10
2022-12-09T12:41:04.418Z,1.80
2022-12-09T12:43:59.134Z,2.10
2022-12-09T12:46:27.123Z,1.80
2022-12-09T12:49:13.134Z,1.60
2022-12-09T12:51:40.225Z,1.60
2022-12-09T12:54:12.883Z,1.80
2022-12-09T12:56:46.996Z,1.57
2022-12-09T12:59:14.090Z,1.73
2022-12-09T13:01:52.491Z,1.70
2022-12-09T13:04:22.691Z,1.70
2022-12-09T13:06:49.944Z,1.50
2022-12-09T13:09:27.450Z,1.80
2022-12-09T13:12:08.059Z,1.80
2022-12-09T13:14:40.525Z,1.67
2022-12-09T13:17:09.121Z,1.87
2022-12-09T13:19:51.133Z,1.90
2022-12-09T13:22:41.252Z,1.80
2022-12-09T13:25:32.319Z,1.80
2022-12-09T13:28:14.175Z,1.60
2022-12-09T13:30:48.452Z,1.63
2022-12-09T13:33:35.104Z,1.77
2022-12-09T13:36:06.705Z,1.80
2022-12-09T13:38:40.538Z,1.67
2022-12-09T13:41:26.526Z,2.27
2022-12-09T13:44:12.842Z,1.70
2022-12-09T13:46:42.727Z,1.67
2022-12-09T13:49:20.648Z,1.80
2022-12-09T13:51:52.382Z,1.70
2022-12-09T13:54:21.163Z,1.80
2022-12-09T13:57:04.999Z,1.93
2022-12-09T13:59:32.177Z,2.00
2022-12-09T14:02:02.410Z,2.10
2022-12-09T14:04:29.578Z,1.80
2022-12-09T14:07:23.110Z,1.90
2022-12-09T14:09:53.434Z,1.80
2022-12-09T14:12:26.622Z,1.90
2022-12-09T14:14:54.889Z,1.90
2022-12-09T14:17:43.146Z,2.10
2022-12-09T14:20:24.548Z,2.20
2022-12-09T14:23:03.897Z,1.97
2022-12-09T14:25:33.568Z,1.90
2022-12-09T14:28:12.865Z,2.20
2022-12-09T14:30:49.431Z,1.90
2022-12-09T14:33:35.533Z,2.10
2022-12-09T14:36:02.658Z,2.00
2022-12-09T14:38:49.603Z,2.00
2022-12-09T14:41:30.933Z,2.13
2022-12-09T14:44:10.049Z,1.87
2022-12-09T14:46:38.561Z,1.90
2022-12-09T14:49:05.719Z,2.00
2022-12-09T14:51:47.776Z,2.10
2022-12-09T14:54:26.281Z,2.03
2022-12-09T14:56:55.648Z,2.10
2022-12-09T14:59:24.360Z,2.10
2022-12-09T15:01:54.286Z,1.97
2022-12-09T15:04:27.692Z,2.00
2022-12-09T15:07:08.473Z,1.93
2022-12-09T15:09:35.649Z,2.10
2022-12-09T15:12:07.836Z,2.00
2022-12-09T15:14:36.342Z,2.00
2022-12-09T15:17:03.490Z,1.90
2022-12-09T15:19:59.048Z,1.83
2022-12-09T15:22:30.134Z,1.70
2022-12-09T15:24:57.358Z,2.00
2022-12-09T15:27:25.443Z,1.97
2022-12-09T15:29:53.265Z,2.10
2022-12-09T15:32:22.218Z,2.13
2022-12-09T15:34:49.396Z,2.07
2022-12-09T15:37:17.774Z,2.10
2022-12-09T15:39:50.179Z,2.10
2022-12-09T15:42:21.965Z,2.13
2022-12-09T15:44:49.110Z,2.00
2022-12-09T15:47:20.813Z,2.07
2022-12-09T15:49:57.390Z,2.30
2022-12-09T15:52:27.298Z,2.00
2022-12-09T15:54:54.958Z,2.07
2022-12-09T15:57:23.392Z,2.13
2022-12-09T15:59:56.084Z,2.40
2022-12-09T16:02:26.269Z,2.60
2022-12-09T16:04:55.041Z,2.20
2022-12-09T16:07:23.462Z,2.27
2022-12-09T16:10:09.293Z,2.30
2022-12-09T16:12:37.179Z,2.40
2022-12-09T16:15:06.280Z,2.33
2022-12-09T16:17:37.637Z,2.50
2022-12-09T16:20:21.531Z,2.10
2022-12-09T16:22:49.850Z,2.40
2022-12-09T16:25:20.818Z,2.47
2022-12-09T16:27:49.613Z,2.60
2022-12-09T16:30:16.783Z,2.90
2022-12-09T16:32:47.941Z,2.77
2022-12-09T16:35:17.797Z,2.80
2022-12-09T16:37:56.914Z,2.90
2022-12-09T16:40:24.021Z,3.00
2022-12-09T16:42:52.190Z,2.87
2022-12-09T16:45:32.117Z,2.87
2022-12-09T16:48:00.076Z,2.80
2022-12-09T16:50:29.125Z,2.90
2022-12-09T16:52:56.539Z,2.90
2022-12-09T16:55:24.951Z,3.20
2022-12-09T16:57:52.554Z,2.80
2022-12-09T17:00:20.246Z,3.00
2022-12-09T17:02:55.443Z,3.30
2022-12-09T17:05:22.548Z,2.90
2022-12-09T17:07:49.813Z,3.10
2022-12-09T17:10:17.337Z,3.43
2022-12-09T17:12:44.943Z,3.47
2022-12-09T17:15:16.177Z,3.10
2022-12-09T17:17:48.399Z,3.13
2022-12-09T17:20:16.205Z,3.17
2022-12-09T17:22:43.433Z,2.93
2022-12-09T17:25:10.639Z,3.10
2022-12-09T17:27:38.223Z,3.00
2022-12-09T17:30:05.779Z,3.20
2022-12-09T17:32:32.905Z,3.10
2022-12-09T17:35:00.010Z,3.10
2022-12-09T17:37:27.250Z,3.00
2022-12-09T17:40:00.096Z,3.00
2022-12-09T17:42:30.456Z,3.17
2022-12-09T17:44:57.869Z,3.10
2022-12-09T17:47:25.148Z,3.00
2022-12-09T17:49:52.436Z,3.00
2022-12-09T17:52:19.570Z,2.40
2022-12-09T17:54:47.719Z,3.20
2022-12-09T17:57:14.908Z,3.10
2022-12-09T17:59:42.111Z,2.90
2022-12-09T18:02:10.823Z,3.30
2022-12-09T18:04:38.037Z,3.30
2022-12-09T18:07:05.186Z,3.20
2022-12-09T18:09:32.456Z,3.10
2022-12-09T18:11:59.625Z,3.50
2022-12-09T18:14:26.794Z,2.97
2022-12-09T18:16:54.157Z,3.00
2022-12-09T18:19:23.372Z,3.40
2022-12-09T18:21:50.524Z,3.47
2022-12-09T18:24:18.270Z,3.53
2022-12-09T18:26:45.404Z,3.43
2022-12-09T18:29:13.003Z,3.80
2022-12-09T18:31:40.758Z,3.53
2022-12-09T18:34:07.910Z,4.00
2022-12-09T18:36:35.293Z,3.27
2022-12-09T18:39:02.435Z,3.50
2022-12-09T18:41:30.558Z,3.93
2022-12-09T18:43:58.965Z,3.80
2022-12-09T18:46:28.255Z,3.90
2022-12-09T18:48:59.376Z,3.40
2022-12-09T18:51:26.772Z,4.13
2022-12-09T18:53:54.042Z,3.50
2022-12-09T18:56:21.235Z,4.13
2022-12-09T19:01:39.080Z,4.00
2022-12-09T19:04:06.984Z,4.47
2022-12-09T19:06:35.260Z,3.63
2022-12-09T19:09:04.181Z,3.80
2022-12-09T19:11:32.965Z,2.97
2022-12-09T19:14:00.565Z,4.30
2022-12-09T19:16:28.385Z,4.50
2022-12-09T19:18:56.050Z,4.53
2022-12-09T19:21:24.003Z,5.37
2022-12-09T19:23:51.740Z,4.53
2022-12-09T19:26:23.612Z,5.00
2022-12-09T19:28:52.966Z,4.53
2022-12-09T19:31:30.255Z,4.60
2022-12-09T19:33:58.598Z,4.90
2022-12-09T19:36:27.044Z,4.70
2022-12-09T19:38:54.215Z,4.03
2022-12-09T19:41:21.675Z,4.70
2022-12-09T19:43:48.876Z,4.13
2022-12-09T19:46:16.452Z,3.97
2022-12-09T19:48:44.424Z,4.60
2022-12-09T19:51:13.072Z,4.67
2022-12-09T19:53:40.937Z,4.30
2022-12-09T19:56:09.777Z,4.40
2022-12-09T19:58:37.967Z,4.17
2022-12-09T20:01:11.965Z,4.03
2022-12-09T20:03:39.682Z,4.30
2022-12-09T20:06:08.091Z,4.10
2022-12-09T20:08:35.529Z,4.60
2022-12-09T20:11:02.716Z,4.10
2022-12-09T20:13:32.032Z,3.87
2022-12-09T20:16:03.344Z,4.30
2022-12-09T20:18:30.574Z,4.17
2022-12-09T20:21:00.660Z,4.30
2022-12-09T20:23:28.106Z,4.07
2022-12-09T20:25:55.236Z,3.90
2022-12-09T20:28:22.369Z,3.70
2022-12-09T20:30:51.278Z,4.13
2022-12-09T20:33:18.434Z,4.10
2022-12-09T20:35:45.581Z,3.30
2022-12-09T20:38:12.779Z,3.40
2022-12-09T20:40:40.887Z,3.50
2022-12-09T20:43:08.154Z,3.13
2022-12-09T20:45:35.468Z,3.20
2022-12-09T20:48:02.644Z,3.47
2022-12-09T20:50:35.125Z,3.55
2022-12-09T20:53:05.405Z,3.30
2022-12-09T20:55:32.542Z,3.13
2022-12-09T20:57:59.801Z,3.50
2022-12-09T21:00:26.933Z,2.97
2022-12-09T21:02:54.043Z,3.47
2022-12-09T21:05:21.214Z,3.23
2022-12-09T21:07:48.417Z,3.30
2022-12-09T21:10:15.617Z,3.00
2022-12-09T21:12:42.734Z,3.17
2022-12-09T21:15:10.912Z,2.90
2022-12-09T21:17:38.039Z,3.30
2022-12-09T21:20:05.557Z,2.93
2022-12-09T21:22:34.141Z,4.00
2022-12-09T21:25:01.258Z,3.40
2022-12-09T21:27:28.425Z,2.80
2022-12-09T21:29:55.588Z,3.43
2022-12-09T21:32:22.699Z,3.20
2022-12-09T21:34:49.850Z,3.57
2022-12-09T21:37:17.160Z,3.50
2022-12-09T21:39:44.334Z,3.73
2022-12-09T21:42:11.518Z,3.53
2022-12-09T21:44:40.937Z,3.27
2022-12-09T21:47:08.093Z,3.50
2022-12-09T21:49:35.344Z,3.37
2022-12-09T21:52:03.398Z,3.40
2022-12-09T21:54:30.591Z,3.13
2022-12-09T21:56:57.753Z,3.10
2022-12-09T21:59:24.897Z,3.03
2022-12-09T22:01:52.087Z,3.30
2022-12-09T22:04:19.449Z,3.30
2022-12-09T22:06:50.600Z,3.43
2022-12-09T22:09:20.558Z,3.10
2022-12-09T22:11:47.812Z,3.37
2022-12-09T22:14:14.985Z,2.57
2022-12-09T22:16:43.871Z,2.70
2022-12-09T22:19:13.836Z,3.17
2022-12-09T22:21:41.034Z,3.37
2022-12-09T22:24:09.361Z,3.23
2022-12-09T22:26:36.781Z,3.37
2022-12-09T22:29:05.042Z,3.00
2022-12-09T22:31:34.065Z,3.27
2022-12-09T22:34:02.788Z,3.40
2022-12-09T22:36:30.026Z,3.37
2022-12-09T22:38:57.412Z,3.40
2022-12-09T22:41:25.712Z,3.53
2022-12-09T22:43:53.999Z,3.27
2022-12-09T22:46:22.725Z,3.10
2022-12-09T22:48:49.963Z,2.83
2022-12-09T22:51:18.798Z,3.20
2022-12-09T22:53:46.241Z,3.37
2022-12-09T22:56:13.387Z,3.30
2022-12-09T22:58:40.950Z,3.70
2022-12-09T23:01:18.608Z,3.80
2022-12-09T23:03:45.800Z,2.70
2022-12-09T23:06:12.928Z,3.17
2022-12-09T23:08:41.119Z,3.00
2022-12-09T23:11:09.390Z,3.30
2022-12-09T23:13:40.992Z,3.50
2022-12-09T23:16:09.179Z,3.07
2022-12-09T23:18:36.527Z,2.93
2022-12-09T23:21:14.187Z,2.80
2022-12-09T23:23:41.795Z,3.23
2022-12-09T23:26:13.459Z,3.30
2022-12-09T23:28:41.641Z,3.10
2022-12-09T23:31:10.245Z,3.17
2022-12-09T23:33:37.836Z,2.60
2022-12-09T23:36:09.089Z,2.73
2022-12-09T23:38:36.535Z,2.67
2022-12-09T23:41:04.270Z,2.83
2022-12-09T23:43:32.299Z,2.80
2022-12-09T23:46:14.474Z,2.70
2022-12-09T23:48:42.775Z,2.37
2022-12-09T23:51:13.991Z,2.40
2022-12-09T23:53:41.840Z,2.27
2022-12-09T23:56:11.185Z,2.97
2022-12-09T23:58:38.297Z,2.70
